sensor_id;sensor_type;location;lat;lon;timestamp;P1;durP1;ratioP1;P2;durP2;ratioP2
4051;SDS011;2040;50.924;11.604;2022-08-19T00:00:23;41.17;;;22.77;;
4051;SDS011;2040;50.924;11.604;2022-08-19T00:02:49;39.87;;;20.20;;
4051;SDS011;2040;50.924;11.604;2022-08-19T00:05:14;32.00;;;20.07;;
4051;SDS011;2040;50.924;11.604;2022-08-19T00:07:40;34.77;;;20.97;;
4051;SDS011;2040;50.924;11.604;2022-08-19T00:10:11;33.80;;;20.73;;
4051;SDS011;2040;50.924;11.604;2022-08-19T00:12:39;34.20;;;20.10;;
4051;SDS011;2040;50.924;11.604;2022-08-19T00:15:06;32.20;;;20.67;;
4051;SDS011;2040;50.924;11.604;2022-08-19T00:17:36;34.17;;;20.27;;
4051;SDS011;2040;50.924;11.604;2022-08-19T00:20:03;37.30;;;20.90;;
4051;SDS011;2040;50.924;11.604;2022-08-19T00:22:28;32.47;;;19.87;;
4051;SDS011;2040;50.924;11.604;2022-08-19T00:24:54;35.63;;;20.37;;
4051;SDS011;2040;50.924;11.604;2022-08-19T00:27:20;28.50;;;19.13;;
4051;SDS011;2040;50.924;11.604;2022-08-19T00:29:45;28.57;;;17.90;;
4051;SDS011;2040;50.924;11.604;2022-08-19T00:32:11;28.50;;;17.60;;
4051;SDS011;2040;50.924;11.604;2022-08-19T00:34:37;31.90;;;18.80;;
4051;SDS011;2040;50.924;11.604;2022-08-19T00:37:02;29.97;;;18.90;;
4051;SDS011;2040;50.924;11.604;2022-08-19T00:39:28;32.20;;;18.63;;
4051;SDS011;2040;50.924;11.604;2022-08-19T00:41:54;31.93;;;19.40;;
4051;SDS011;2040;50.924;11.604;2022-08-19T00:44:23;25.77;;;18.60;;
4051;SDS011;2040;50.924;11.604;2022-08-19T00:46:51;34.53;;;18.20;;
4051;SDS011;2040;50.924;11.604;2022-08-19T00:49:29;28.33;;;18.83;;
4051;SDS011;2040;50.924;11.604;2022-08-19T00:52:11;28.83;;;16.27;;
4051;SDS011;2040;50.924;11.604;2022-08-19T00:54:40;32.80;;;17.10;;
4051;SDS011;2040;50.924;11.604;2022-08-19T00:57:09;30.43;;;18.60;;
4051;SDS011;2040;50.924;11.604;2022-08-19T00:59:40;37.73;;;19.13;;
4051;SDS011;2040;50.924;11.604;2022-08-19T01:02:08;29.90;;;18.03;;
4051;SDS011;2040;50.924;11.604;2022-08-19T01:04:34;29.10;;;17.90;;
4051;SDS011;2040;50.924;11.604;2022-08-19T01:06:59;27.33;;;16.73;;
4051;SDS011;2040;50.924;11.604;2022-08-19T01:09:26;27.00;;;18.20;;
4051;SDS011;2040;50.924;11.604;2022-08-19T01:11:53;28.27;;;17.20;;
4051;SDS011;2040;50.924;11.604;2022-08-19T01:14:18;27.27;;;16.07;;
4051;SDS011;2040;50.924;11.604;2022-08-19T01:16:44;25.03;;;16.13;;
4051;SDS011;2040;50.924;11.604;2022-08-19T01:19:17;31.07;;;17.90;;
4051;SDS011;2040;50.924;11.604;2022-08-19T01:21:51;29.60;;;17.40;;
4051;SDS011;2040;50.924;11.604;2022-08-19T01:24:23;25.40;;;17.47;;
4051;SDS011;2040;50.924;11.604;2022-08-19T01:26:48;28.87;;;17.73;;
4051;SDS011;2040;50.924;11.604;2022-08-19T01:29:14;24.77;;;16.47;;
4051;SDS011;2040;50.924;11.604;2022-08-19T01:31:40;22.77;;;15.47;;
4051;SDS011;2040;50.924;11.604;2022-08-19T01:34:06;24.50;;;16.87;;
4051;SDS011;2040;50.924;11.604;2022-08-19T01:36:37;23.83;;;16.00;;
4051;SDS011;2040;50.924;11.604;2022-08-19T01:39:07;24.50;;;16.07;;
4051;SDS011;2040;50.924;11.604;2022-08-19T01:41:35;24.53;;;15.80;;
4051;SDS011;2040;50.924;11.604;2022-08-19T01:44:01;29.27;;;16.23;;
4051;SDS011;2040;50.924;11.604;2022-08-19T01:46:31;26.80;;;15.50;;
4051;SDS011;2040;50.924;11.604;2022-08-19T01:48:57;22.43;;;15.77;;
4051;SDS011;2040;50.924;11.604;2022-08-19T01:51:23;23.13;;;15.20;;
4051;SDS011;2040;50.924;11.604;2022-08-19T01:53:50;27.00;;;16.40;;
4051;SDS011;2040;50.924;11.604;2022-08-19T01:56:16;28.40;;;15.53;;
4051;SDS011;2040;50.924;11.604;2022-08-19T01:58:45;26.57;;;16.03;;
4051;SDS011;2040;50.924;11.604;2022-08-19T02:01:16;29.03;;;16.57;;
4051;SDS011;2040;50.924;11.604;2022-08-19T02:03:42;26.20;;;16.13;;
4051;SDS011;2040;50.924;11.604;2022-08-19T02:06:08;26.23;;;17.03;;
4051;SDS011;2040;50.924;11.604;2022-08-19T02:08:35;26.43;;;17.37;;
4051;SDS011;2040;50.924;11.604;2022-08-19T02:11:02;22.80;;;15.80;;
4051;SDS011;2040;50.924;11.604;2022-08-19T02:13:28;28.30;;;16.13;;
4051;SDS011;2040;50.924;11.604;2022-08-19T02:15:54;22.40;;;14.30;;
4051;SDS011;2040;50.924;11.604;2022-08-19T02:18:19;24.13;;;14.70;;
4051;SDS011;2040;50.924;11.604;2022-08-19T02:20:45;25.87;;;14.47;;
4051;SDS011;2040;50.924;11.604;2022-08-19T02:23:12;27.67;;;15.87;;
4051;SDS011;2040;50.924;11.604;2022-08-19T02:25:40;24.10;;;16.20;;
4051;SDS011;2040;50.924;11.604;2022-08-19T02:28:07;24.53;;;15.93;;
4051;SDS011;2040;50.924;11.604;2022-08-19T02:30:32;24.10;;;15.27;;
4051;SDS011;2040;50.924;11.604;2022-08-19T02:32:58;22.77;;;14.87;;
4051;SDS011;2040;50.924;11.604;2022-08-19T02:35:24;25.47;;;15.60;;
4051;SDS011;2040;50.924;11.604;2022-08-19T02:37:50;23.30;;;15.90;;
4051;SDS011;2040;50.924;11.604;2022-08-19T02:40:34;23.77;;;16.30;;
4051;SDS011;2040;50.924;11.604;2022-08-19T02:43:03;25.00;;;17.00;;
4051;SDS011;2040;50.924;11.604;2022-08-19T02:45:33;28.73;;;16.67;;
4051;SDS011;2040;50.924;11.604;2022-08-19T02:47:59;27.63;;;16.40;;
4051;SDS011;2040;50.924;11.604;2022-08-19T02:50:25;28.80;;;17.47;;
4051;SDS011;2040;50.924;11.604;2022-08-19T02:52:50;30.33;;;18.63;;
4051;SDS011;2040;50.924;11.604;2022-08-19T02:55:16;29.40;;;17.90;;
4051;SDS011;2040;50.924;11.604;2022-08-19T02:57:41;29.40;;;17.93;;
4051;SDS011;2040;50.924;11.604;2022-08-19T03:00:07;27.30;;;18.17;;
4051;SDS011;2040;50.924;11.604;2022-08-19T03:02:37;30.37;;;18.90;;
4051;SDS011;2040;50.924;11.604;2022-08-19T03:05:03;32.57;;;19.23;;
4051;SDS011;2040;50.924;11.604;2022-08-19T03:07:29;34.87;;;20.73;;
4051;SDS011;2040;50.924;11.604;2022-08-19T03:09:55;30.43;;;19.53;;
4051;SDS011;2040;50.924;11.604;2022-08-19T03:12:21;38.20;;;19.57;;
4051;SDS011;2040;50.924;11.604;2022-08-19T03:14:46;30.77;;;17.67;;
4051;SDS011;2040;50.924;11.604;2022-08-19T03:17:12;35.63;;;21.50;;
4051;SDS011;2040;50.924;11.604;2022-08-19T03:19:38;29.97;;;19.00;;
4051;SDS011;2040;50.924;11.604;2022-08-19T03:22:04;31.33;;;19.40;;
4051;SDS011;2040;50.924;11.604;2022-08-19T03:24:30;28.27;;;17.50;;
4051;SDS011;2040;50.924;11.604;2022-08-19T03:26:56;33.87;;;17.03;;
4051;SDS011;2040;50.924;11.604;2022-08-19T03:29:23;42.83;;;18.97;;
4051;SDS011;2040;50.924;11.604;2022-08-19T03:31:49;27.87;;;17.90;;
4051;SDS011;2040;50.924;11.604;2022-08-19T03:34:26;37.27;;;19.10;;
4051;SDS011;2040;50.924;11.604;2022-08-19T03:36:55;33.20;;;19.27;;
4051;SDS011;2040;50.924;11.604;2022-08-19T03:39:22;34.97;;;19.83;;
4051;SDS011;2040;50.924;11.604;2022-08-19T03:41:51;27.50;;;18.50;;
4051;SDS011;2040;50.924;11.604;2022-08-19T03:44:21;30.00;;;20.10;;
4051;SDS011;2040;50.924;11.604;2022-08-19T03:46:53;31.33;;;18.53;;
4051;SDS011;2040;50.924;11.604;2022-08-19T03:49:24;31.73;;;19.03;;
4051;SDS011;2040;50.924;11.604;2022-08-19T03:51:52;35.13;;;18.83;;
4051;SDS011;2040;50.924;11.604;2022-08-19T03:54:19;37.00;;;20.00;;
4051;SDS011;2040;50.924;11.604;2022-08-19T03:56:47;31.60;;;19.03;;
4051;SDS011;2040;50.924;11.604;2022-08-19T03:59:16;39.90;;;21.10;;
4051;SDS011;2040;50.924;11.604;2022-08-19T04:01:50;40.87;;;18.93;;
4051;SDS011;2040;50.924;11.604;2022-08-19T04:04:17;32.53;;;19.20;;
4051;SDS011;2040;50.924;11.604;2022-08-19T04:06:42;46.40;;;22.53;;
4051;SDS011;2040;50.924;11.604;2022-08-19T04:09:09;33.83;;;18.83;;
4051;SDS011;2040;50.924;11.604;2022-08-19T04:11:37;35.10;;;19.70;;
4051;SDS011;2040;50.924;11.604;2022-08-19T04:14:12;37.57;;;19.90;;
4051;SDS011;2040;50.924;11.604;2022-08-19T04:16:40;36.80;;;19.47;;
4051;SDS011;2040;50.924;11.604;2022-08-19T04:19:08;29.93;;;19.10;;
4051;SDS011;2040;50.924;11.604;2022-08-19T04:21:34;29.50;;;18.80;;
4051;SDS011;2040;50.924;11.604;2022-08-19T04:24:00;32.30;;;19.10;;
4051;SDS011;2040;50.924;11.604;2022-08-19T04:26:27;29.00;;;18.50;;
4051;SDS011;2040;50.924;11.604;2022-08-19T04:28:59;31.10;;;18.97;;
4051;SDS011;2040;50.924;11.604;2022-08-19T04:31:27;26.50;;;17.07;;
4051;SDS011;2040;50.924;11.604;2022-08-19T04:33:58;32.50;;;18.90;;
4051;SDS011;2040;50.924;11.604;2022-08-19T04:36:26;31.20;;;19.37;;
4051;SDS011;2040;50.924;11.604;2022-08-19T04:38:55;31.83;;;19.40;;
4051;SDS011;2040;50.924;11.604;2022-08-19T04:41:23;33.07;;;20.70;;
4051;SDS011;2040;50.924;11.604;2022-08-19T04:44:08;30.63;;;17.30;;
4051;SDS011;2040;50.924;11.604;2022-08-19T04:46:33;32.00;;;18.40;;
4051;SDS011;2040;50.924;11.604;2022-08-19T04:48:59;27.40;;;17.90;;
4051;SDS011;2040;50.924;11.604;2022-08-19T04:51:26;35.73;;;20.40;;
4051;SDS011;2040;50.924;11.604;2022-08-19T04:53:52;40.20;;;21.73;;
4051;SDS011;2040;50.924;11.604;2022-08-19T04:56:18;41.20;;;21.30;;
4051;SDS011;2040;50.924;11.604;2022-08-19T04:58:46;41.33;;;21.03;;
4051;SDS011;2040;50.924;11.604;2022-08-19T05:01:13;38.43;;;21.27;;
4051;SDS011;2040;50.924;11.604;2022-08-19T05:03:42;40.13;;;23.03;;
4051;SDS011;2040;50.924;11.604;2022-08-19T05:06:09;35.90;;;21.90;;
4051;SDS011;2040;50.924;11.604;2022-08-19T05:08:36;41.43;;;23.37;;
4051;SDS011;2040;50.924;11.604;2022-08-19T05:11:10;41.63;;;23.73;;
4051;SDS011;2040;50.924;11.604;2022-08-19T05:13:45;35.10;;;22.03;;
4051;SDS011;2040;50.924;11.604;2022-08-19T05:16:13;31.80;;;21.33;;
4051;SDS011;2040;50.924;11.604;2022-08-19T05:18:41;48.27;;;23.73;;
4051;SDS011;2040;50.924;11.604;2022-08-19T05:21:26;39.00;;;22.83;;
4051;SDS011;2040;50.924;11.604;2022-08-19T05:24:10;37.50;;;23.27;;
4051;SDS011;2040;50.924;11.604;2022-08-19T05:26:38;45.53;;;23.80;;
4051;SDS011;2040;50.924;11.604;2022-08-19T05:29:05;40.40;;;24.20;;
4051;SDS011;2040;50.924;11.604;2022-08-19T05:31:32;38.50;;;23.00;;
4051;SDS011;2040;50.924;11.604;2022-08-19T05:33:58;45.93;;;27.07;;
4051;SDS011;2040;50.924;11.604;2022-08-19T05:36:28;38.20;;;22.50;;
4051;SDS011;2040;50.924;11.604;2022-08-19T05:39:00;41.30;;;24.73;;
4051;SDS011;2040;50.924;11.604;2022-08-19T05:41:27;49.30;;;25.30;;
4051;SDS011;2040;50.924;11.604;2022-08-19T05:43:54;44.70;;;22.97;;
4051;SDS011;2040;50.924;11.604;2022-08-19T05:46:21;38.27;;;22.50;;
4051;SDS011;2040;50.924;11.604;2022-08-19T05:48:47;38.63;;;23.63;;
4051;SDS011;2040;50.924;11.604;2022-08-19T05:51:14;41.33;;;23.10;;
4051;SDS011;2040;50.924;11.604;2022-08-19T05:53:41;42.77;;;22.03;;
4051;SDS011;2040;50.924;11.604;2022-08-19T05:56:07;45.80;;;22.73;;
4051;SDS011;2040;50.924;11.604;2022-08-19T05:58:36;40.33;;;22.10;;
4051;SDS011;2040;50.924;11.604;2022-08-19T06:01:02;37.10;;;22.03;;
4051;SDS011;2040;50.924;11.604;2022-08-19T06:03:33;36.67;;;20.03;;
4051;SDS011;2040;50.924;11.604;2022-08-19T06:06:00;35.77;;;22.77;;
4051;SDS011;2040;50.924;11.604;2022-08-19T06:08:27;38.80;;;22.10;;
4051;SDS011;2040;50.924;11.604;2022-08-19T06:10:53;37.63;;;23.83;;
4051;SDS011;2040;50.924;11.604;2022-08-19T06:13:19;37.13;;;21.43;;
4051;SDS011;2040;50.924;11.604;2022-08-19T06:15:46;37.67;;;23.30;;
4051;SDS011;2040;50.924;11.604;2022-08-19T06:18:12;40.50;;;21.60;;
4051;SDS011;2040;50.924;11.604;2022-08-19T06:20:38;34.17;;;22.07;;
4051;SDS011;2040;50.924;11.604;2022-08-19T06:23:04;39.93;;;20.70;;
4051;SDS011;2040;50.924;11.604;2022-08-19T06:25:30;36.20;;;21.67;;
4051;SDS011;2040;50.924;11.604;2022-08-19T06:27:55;35.00;;;20.97;;
4051;SDS011;2040;50.924;11.604;2022-08-19T06:30:21;35.23;;;21.77;;
4051;SDS011;2040;50.924;11.604;2022-08-19T06:32:48;34.93;;;21.03;;
4051;SDS011;2040;50.924;11.604;2022-08-19T06:35:13;42.20;;;24.30;;
4051;SDS011;2040;50.924;11.604;2022-08-19T06:37:39;39.83;;;22.77;;
4051;SDS011;2040;50.924;11.604;2022-08-19T06:40:06;42.73;;;25.00;;
4051;SDS011;2040;50.924;11.604;2022-08-19T06:42:33;45.80;;;26.10;;
4051;SDS011;2040;50.924;11.604;2022-08-19T06:45:00;39.77;;;22.97;;
4051;SDS011;2040;50.924;11.604;2022-08-19T06:47:28;43.40;;;24.83;;
4051;SDS011;2040;50.924;11.604;2022-08-19T06:49:56;39.73;;;23.80;;
4051;SDS011;2040;50.924;11.604;2022-08-19T06:52:26;48.00;;;24.80;;
4051;SDS011;2040;50.924;11.604;2022-08-19T06:54:56;44.97;;;25.37;;
4051;SDS011;2040;50.924;11.604;2022-08-19T06:57:34;46.67;;;26.17;;
4051;SDS011;2040;50.924;11.604;2022-08-19T07:00:00;42.80;;;24.87;;
4051;SDS011;2040;50.924;11.604;2022-08-19T07:02:26;40.03;;;24.20;;
4051;SDS011;2040;50.924;11.604;2022-08-19T07:04:52;47.30;;;26.10;;
4051;SDS011;2040;50.924;11.604;2022-08-19T07:07:17;40.83;;;24.23;;
4051;SDS011;2040;50.924;11.604;2022-08-19T07:09:45;44.43;;;25.90;;
4051;SDS011;2040;50.924;11.604;2022-08-19T07:12:11;43.30;;;26.43;;
4051;SDS011;2040;50.924;11.604;2022-08-19T07:14:40;43.50;;;24.50;;
4051;SDS011;2040;50.924;11.604;2022-08-19T07:17:07;38.30;;;24.83;;
4051;SDS011;2040;50.924;11.604;2022-08-19T07:19:34;42.50;;;26.20;;
4051;SDS011;2040;50.924;11.604;2022-08-19T07:22:02;47.23;;;25.87;;
4051;SDS011;2040;50.924;11.604;2022-08-19T07:24:30;46.40;;;26.27;;
4051;SDS011;2040;50.924;11.604;2022-08-19T07:26:57;43.83;;;24.57;;
4051;SDS011;2040;50.924;11.604;2022-08-19T07:29:25;51.50;;;27.60;;
4051;SDS011;2040;50.924;11.604;2022-08-19T07:31:52;47.67;;;27.83;;
4051;SDS011;2040;50.924;11.604;2022-08-19T07:34:20;46.80;;;27.30;;
4051;SDS011;2040;50.924;11.604;2022-08-19T07:36:48;48.90;;;27.60;;
4051;SDS011;2040;50.924;11.604;2022-08-19T07:39:16;45.50;;;27.10;;
4051;SDS011;2040;50.924;11.604;2022-08-19T07:41:46;44.13;;;26.10;;
4051;SDS011;2040;50.924;11.604;2022-08-19T07:44:12;54.93;;;30.20;;
4051;SDS011;2040;50.924;11.604;2022-08-19T07:46:42;57.20;;;28.90;;
4051;SDS011;2040;50.924;11.604;2022-08-19T07:49:10;45.53;;;28.10;;
4051;SDS011;2040;50.924;11.604;2022-08-19T07:51:42;53.73;;;29.07;;
4051;SDS011;2040;50.924;11.604;2022-08-19T07:54:08;59.87;;;30.07;;
4051;SDS011;2040;50.924;11.604;2022-08-19T07:56:34;50.60;;;28.70;;
4051;SDS011;2040;50.924;11.604;2022-08-19T07:59:00;56.83;;;31.13;;
4051;SDS011;2040;50.924;11.604;2022-08-19T08:01:27;44.73;;;27.50;;
4051;SDS011;2040;50.924;11.604;2022-08-19T08:03:53;56.37;;;30.07;;
4051;SDS011;2040;50.924;11.604;2022-08-19T08:06:41;47.53;;;26.87;;
4051;SDS011;2040;50.924;11.604;2022-08-19T08:09:27;45.97;;;27.00;;
4051;SDS011;2040;50.924;11.604;2022-08-19T08:11:57;40.13;;;24.50;;
4051;SDS011;2040;50.924;11.604;2022-08-19T08:14:48;42.67;;;24.17;;
4051;SDS011;2040;50.924;11.604;2022-08-19T08:17:16;39.93;;;24.10;;
4051;SDS011;2040;50.924;11.604;2022-08-19T08:19:44;45.80;;;26.23;;
4051;SDS011;2040;50.924;11.604;2022-08-19T08:22:13;44.80;;;25.30;;
4051;SDS011;2040;50.924;11.604;2022-08-19T08:25:06;43.10;;;23.77;;
4051;SDS011;2040;50.924;11.604;2022-08-19T08:27:41;45.83;;;24.63;;
4051;SDS011;2040;50.924;11.604;2022-08-19T08:30:12;38.33;;;22.63;;
4051;SDS011;2040;50.924;11.604;2022-08-19T08:32:40;42.53;;;24.50;;
4051;SDS011;2040;50.924;11.604;2022-08-19T08:35:07;47.70;;;26.10;;
4051;SDS011;2040;50.924;11.604;2022-08-19T08:37:35;41.90;;;24.90;;
4051;SDS011;2040;50.924;11.604;2022-08-19T08:40:06;35.70;;;22.90;;
4051;SDS011;2040;50.924;11.604;2022-08-19T08:43:02;37.97;;;23.90;;
4051;SDS011;2040;50.924;11.604;2022-08-19T08:45:35;36.33;;;23.23;;
4051;SDS011;2040;50.924;11.604;2022-08-19T08:48:09;42.90;;;25.53;;
4051;SDS011;2040;50.924;11.604;2022-08-19T08:51:02;39.17;;;24.13;;
4051;SDS011;2040;50.924;11.604;2022-08-19T08:53:32;54.70;;;25.30;;
4051;SDS011;2040;50.924;11.604;2022-08-19T08:56:01;49.63;;;24.50;;
4051;SDS011;2040;50.924;11.604;2022-08-19T08:58:30;42.60;;;23.40;;
4051;SDS011;2040;50.924;11.604;2022-08-19T09:01:08;44.00;;;24.00;;
4051;SDS011;2040;50.924;11.604;2022-08-19T09:03:36;36.90;;;21.53;;
4051;SDS011;2040;50.924;11.604;2022-08-19T09:09:04;43.30;;;22.93;;
4051;SDS011;2040;50.924;11.604;2022-08-19T09:14:50;33.67;;;21.47;;
4051;SDS011;2040;50.924;11.604;2022-08-19T09:17:21;39.77;;;21.90;;
4051;SDS011;2040;50.924;11.604;2022-08-19T09:22:38;33.07;;;21.20;;
4051;SDS011;2040;50.924;11.604;2022-08-19T09:25:06;33.60;;;19.77;;
4051;SDS011;2040;50.924;11.604;2022-08-19T09:27:35;31.73;;;19.70;;
4051;SDS011;2040;50.924;11.604;2022-08-19T09:30:03;45.47;;;22.30;;
4051;SDS011;2040;50.924;11.604;2022-08-19T09:32:30;35.67;;;21.10;;
4051;SDS011;2040;50.924;11.604;2022-08-19T09:34:55;31.77;;;21.50;;
4051;SDS011;2040;50.924;11.604;2022-08-19T09:37:23;34.10;;;19.80;;
4051;SDS011;2040;50.924;11.604;2022-08-19T09:39:49;29.13;;;17.77;;
4051;SDS011;2040;50.924;11.604;2022-08-19T09:42:15;28.40;;;17.00;;
4051;SDS011;2040;50.924;11.604;2022-08-19T09:44:41;27.30;;;17.13;;
4051;SDS011;2040;50.924;11.604;2022-08-19T09:47:08;29.27;;;18.70;;
4051;SDS011;2040;50.924;11.604;2022-08-19T09:49:35;29.10;;;18.50;;
4051;SDS011;2040;50.924;11.604;2022-08-19T09:52:01;33.00;;;19.27;;
4051;SDS011;2040;50.924;11.604;2022-08-19T09:54:27;32.40;;;20.63;;
4051;SDS011;2040;50.924;11.604;2022-08-19T09:56:53;34.83;;;20.00;;
4051;SDS011;2040;50.924;11.604;2022-08-19T09:59:19;28.43;;;18.37;;
4051;SDS011;2040;50.924;11.604;2022-08-19T10:01:45;34.80;;;19.70;;
4051;SDS011;2040;50.924;11.604;2022-08-19T10:04:10;27.40;;;17.40;;
4051;SDS011;2040;50.924;11.604;2022-08-19T10:06:37;27.73;;;17.60;;
4051;SDS011;2040;50.924;11.604;2022-08-19T10:09:04;25.20;;;16.13;;
4051;SDS011;2040;50.924;11.604;2022-08-19T10:11:32;27.27;;;17.67;;
4051;SDS011;2040;50.924;11.604;2022-08-19T10:14:00;26.67;;;17.47;;
4051;SDS011;2040;50.924;11.604;2022-08-19T10:16:27;29.90;;;17.00;;
4051;SDS011;2040;50.924;11.604;2022-08-19T10:18:53;27.90;;;16.80;;
4051;SDS011;2040;50.924;11.604;2022-08-19T10:21:21;35.43;;;17.07;;
4051;SDS011;2040;50.924;11.604;2022-08-19T10:23:49;25.13;;;16.03;;
4051;SDS011;2040;50.924;11.604;2022-08-19T10:26:18;25.47;;;15.00;;
4051;SDS011;2040;50.924;11.604;2022-08-19T10:28:46;31.80;;;13.73;;
4051;SDS011;2040;50.924;11.604;2022-08-19T10:31:13;22.67;;;14.40;;
4051;SDS011;2040;50.924;11.604;2022-08-19T10:33:42;21.93;;;12.63;;
4051;SDS011;2040;50.924;11.604;2022-08-19T10:36:14;14.20;;;10.90;;
4051;SDS011;2040;50.924;11.604;2022-08-19T10:38:44;13.50;;;9.40;;
4051;SDS011;2040;50.924;11.604;2022-08-19T10:41:15;12.43;;;9.20;;
4051;SDS011;2040;50.924;11.604;2022-08-19T10:43:50;14.13;;;9.03;;
4051;SDS011;2040;50.924;11.604;2022-08-19T10:46:17;12.30;;;8.80;;
4051;SDS011;2040;50.924;11.604;2022-08-19T10:48:43;12.90;;;9.47;;
4051;SDS011;2040;50.924;11.604;2022-08-19T10:51:12;12.80;;;9.20;;
4051;SDS011;2040;50.924;11.604;2022-08-19T10:53:59;10.80;;;8.33;;
4051;SDS011;2040;50.924;11.604;2022-08-19T10:56:26;12.33;;;7.60;;
4051;SDS011;2040;50.924;11.604;2022-08-19T10:59:11;11.30;;;7.03;;
4051;SDS011;2040;50.924;11.604;2022-08-19T11:01:40;11.53;;;7.43;;
4051;SDS011;2040;50.924;11.604;2022-08-19T11:04:07;10.50;;;7.37;;
4051;SDS011;2040;50.924;11.604;2022-08-19T11:06:38;11.00;;;8.63;;
4051;SDS011;2040;50.924;11.604;2022-08-19T11:09:05;12.10;;;7.50;;
4051;SDS011;2040;50.924;11.604;2022-08-19T11:11:32;11.70;;;7.90;;
4051;SDS011;2040;50.924;11.604;2022-08-19T11:14:04;10.70;;;7.03;;
4051;SDS011;2040;50.924;11.604;2022-08-19T11:16:30;9.20;;;7.33;;
4051;SDS011;2040;50.924;11.604;2022-08-19T11:18:57;16.83;;;7.80;;
4051;SDS011;2040;50.924;11.604;2022-08-19T11:21:26;10.33;;;7.77;;
4051;SDS011;2040;50.924;11.604;2022-08-19T11:23:59;11.60;;;7.93;;
4051;SDS011;2040;50.924;11.604;2022-08-19T11:26:28;15.33;;;8.30;;
4051;SDS011;2040;50.924;11.604;2022-08-19T11:28:55;11.43;;;9.03;;
4051;SDS011;2040;50.924;11.604;2022-08-19T11:31:26;10.87;;;7.70;;
4051;SDS011;2040;50.924;11.604;2022-08-19T11:33:53;14.23;;;8.93;;
4051;SDS011;2040;50.924;11.604;2022-08-19T11:36:27;15.43;;;10.17;;
4051;SDS011;2040;50.924;11.604;2022-08-19T11:38:54;13.80;;;9.30;;
4051;SDS011;2040;50.924;11.604;2022-08-19T11:41:20;17.20;;;10.20;;
4051;SDS011;2040;50.924;11.604;2022-08-19T11:43:51;14.13;;;9.73;;
4051;SDS011;2040;50.924;11.604;2022-08-19T11:46:20;13.73;;;8.73;;
4051;SDS011;2040;50.924;11.604;2022-08-19T11:48:47;14.97;;;10.43;;
4051;SDS011;2040;50.924;11.604;2022-08-19T11:51:16;14.30;;;8.70;;
4051;SDS011;2040;50.924;11.604;2022-08-19T11:53:47;13.57;;;8.93;;
4051;SDS011;2040;50.924;11.604;2022-08-19T11:56:16;12.43;;;8.80;;
4051;SDS011;2040;50.924;11.604;2022-08-19T11:58:42;13.67;;;9.93;;
4051;SDS011;2040;50.924;11.604;2022-08-19T12:01:08;13.60;;;8.87;;
4051;SDS011;2040;50.924;11.604;2022-08-19T12:03:36;11.60;;;8.83;;
4051;SDS011;2040;50.924;11.604;2022-08-19T12:06:04;20.27;;;10.57;;
4051;SDS011;2040;50.924;11.604;2022-08-19T12:11:53;20.10;;;11.00;;
4051;SDS011;2040;50.924;11.604;2022-08-19T12:14:18;13.60;;;9.87;;
4051;SDS011;2040;50.924;11.604;2022-08-19T12:16:45;16.43;;;10.17;;
4051;SDS011;2040;50.924;11.604;2022-08-19T12:19:11;15.73;;;9.10;;
4051;SDS011;2040;50.924;11.604;2022-08-19T12:21:37;13.50;;;9.63;;
4051;SDS011;2040;50.924;11.604;2022-08-19T12:24:03;11.10;;;8.80;;
4051;SDS011;2040;50.924;11.604;2022-08-19T12:26:30;17.03;;;10.80;;
4051;SDS011;2040;50.924;11.604;2022-08-19T12:28:56;14.80;;;9.67;;
4051;SDS011;2040;50.924;11.604;2022-08-19T12:34:46;13.93;;;9.00;;
4051;SDS011;2040;50.924;11.604;2022-08-19T12:37:12;15.50;;;10.53;;
4051;SDS011;2040;50.924;11.604;2022-08-19T12:39:40;15.17;;;10.57;;
4051;SDS011;2040;50.924;11.604;2022-08-19T12:42:07;18.23;;;10.83;;
4051;SDS011;2040;50.924;11.604;2022-08-19T12:44:33;19.70;;;11.70;;
4051;SDS011;2040;50.924;11.604;2022-08-19T12:47:07;16.50;;;10.70;;
4051;SDS011;2040;50.924;11.604;2022-08-19T12:49:34;24.50;;;12.30;;
4051;SDS011;2040;50.924;11.604;2022-08-19T12:52:02;16.50;;;12.50;;
4051;SDS011;2040;50.924;11.604;2022-08-19T12:54:28;18.87;;;11.70;;
4051;SDS011;2040;50.924;11.604;2022-08-19T12:56:55;22.40;;;13.83;;
4051;SDS011;2040;50.924;11.604;2022-08-19T12:59:24;17.17;;;12.37;;
4051;SDS011;2040;50.924;11.604;2022-08-19T13:01:50;15.97;;;13.17;;
4051;SDS011;2040;50.924;11.604;2022-08-19T13:04:22;19.80;;;12.67;;
4051;SDS011;2040;50.924;11.604;2022-08-19T13:06:48;18.53;;;13.70;;
4051;SDS011;2040;50.924;11.604;2022-08-19T13:09:13;26.50;;;12.90;;
4051;SDS011;2040;50.924;11.604;2022-08-19T13:11:39;18.43;;;13.90;;
4051;SDS011;2040;50.924;11.604;2022-08-19T13:14:06;21.90;;;14.07;;
4051;SDS011;2040;50.924;11.604;2022-08-19T13:16:31;18.23;;;12.40;;
4051;SDS011;2040;50.924;11.604;2022-08-19T13:18:57;19.00;;;12.17;;
4051;SDS011;2040;50.924;11.604;2022-08-19T13:21:25;22.57;;;12.87;;
4051;SDS011;2040;50.924;11.604;2022-08-19T13:23:53;16.23;;;11.50;;
4051;SDS011;2040;50.924;11.604;2022-08-19T13:26:19;20.60;;;13.20;;
4051;SDS011;2040;50.924;11.604;2022-08-19T13:28:45;14.27;;;10.27;;
4051;SDS011;2040;50.924;11.604;2022-08-19T13:31:33;16.17;;;10.60;;
4051;SDS011;2040;50.924;11.604;2022-08-19T13:34:19;17.43;;;10.50;;
4051;SDS011;2040;50.924;11.604;2022-08-19T13:36:51;18.00;;;10.70;;
4051;SDS011;2040;50.924;11.604;2022-08-19T13:39:18;16.87;;;10.47;;
4051;SDS011;2040;50.924;11.604;2022-08-19T13:41:45;19.03;;;10.33;;
4051;SDS011;2040;50.924;11.604;2022-08-19T13:44:13;16.90;;;11.03;;
4051;SDS011;2040;50.924;11.604;2022-08-19T13:46:40;12.73;;;10.40;;
4051;SDS011;2040;50.924;11.604;2022-08-19T13:49:10;14.23;;;9.27;;
4051;SDS011;2040;50.924;11.604;2022-08-19T13:51:41;15.70;;;11.53;;
4051;SDS011;2040;50.924;11.604;2022-08-19T13:54:08;18.30;;;10.83;;
4051;SDS011;2040;50.924;11.604;2022-08-19T13:56:35;14.30;;;10.50;;
4051;SDS011;2040;50.924;11.604;2022-08-19T13:59:04;18.63;;;9.17;;
4051;SDS011;2040;50.924;11.604;2022-08-19T14:01:29;14.30;;;9.40;;
4051;SDS011;2040;50.924;11.604;2022-08-19T14:03:55;19.33;;;10.27;;
4051;SDS011;2040;50.924;11.604;2022-08-19T14:06:20;19.63;;;10.67;;
4051;SDS011;2040;50.924;11.604;2022-08-19T14:08:49;14.93;;;9.87;;
4051;SDS011;2040;50.924;11.604;2022-08-19T14:11:15;17.90;;;10.90;;
4051;SDS011;2040;50.924;11.604;2022-08-19T14:13:41;14.73;;;11.03;;
4051;SDS011;2040;50.924;11.604;2022-08-19T14:16:08;17.00;;;9.80;;
4051;SDS011;2040;50.924;11.604;2022-08-19T14:18:35;15.97;;;10.73;;
4051;SDS011;2040;50.924;11.604;2022-08-19T14:21:01;14.40;;;10.40;;
4051;SDS011;2040;50.924;11.604;2022-08-19T14:23:29;15.23;;;9.90;;
4051;SDS011;2040;50.924;11.604;2022-08-19T14:26:09;16.13;;;9.70;;
4051;SDS011;2040;50.924;11.604;2022-08-19T14:28:37;21.03;;;8.73;;
4051;SDS011;2040;50.924;11.604;2022-08-19T14:31:06;15.20;;;8.90;;
4051;SDS011;2040;50.924;11.604;2022-08-19T14:33:33;14.07;;;9.00;;
4051;SDS011;2040;50.924;11.604;2022-08-19T14:35:58;9.03;;;6.80;;
4051;SDS011;2040;50.924;11.604;2022-08-19T14:38:25;12.30;;;8.23;;
4051;SDS011;2040;50.924;11.604;2022-08-19T14:40:51;12.50;;;7.33;;
4051;SDS011;2040;50.924;11.604;2022-08-19T14:43:17;10.23;;;6.70;;
4051;SDS011;2040;50.924;11.604;2022-08-19T14:45:43;11.90;;;7.30;;
4051;SDS011;2040;50.924;11.604;2022-08-19T14:48:09;6.97;;;4.57;;
4051;SDS011;2040;50.924;11.604;2022-08-19T14:50:35;14.20;;;4.70;;
4051;SDS011;2040;50.924;11.604;2022-08-19T14:53:11;6.87;;;4.03;;
4051;SDS011;2040;50.924;11.604;2022-08-19T14:55:39;3.93;;;3.10;;
4051;SDS011;2040;50.924;11.604;2022-08-19T14:58:06;4.57;;;4.07;;